sensor_id;sensor_type;location;lat;lon;timestamp;pressure;altitude;pressure_sealevel;temperature;humidity
73842;BME280;62184;52.006;5.924;2022-12-18T00:02:14;102113.84;;;-2.56;66.63
73842;BME280;62184;52.006;5.924;2022-12-18T00:04:43;102109.22;;;-2.61;66.98
73842;BME280;62184;52.006;5.924;2022-12-18T00:07:09;102102.63;;;-2.71;67.04
73842;BME280;62184;52.006;5.924;2022-12-18T00:09:36;102097.94;;;-2.78;67.45
73842;BME280;62184;52.006;5.924;2022-12-18T00:12:03;102094.19;;;-2.83;67.47
73842;BME280;62184;52.006;5.924;2022-12-18T00:14:30;102088.81;;;-2.86;67.36
73842;BME280;62184;52.006;5.924;2022-12-18T00:16:56;102088.56;;;-2.91;67.40
73842;BME280;62184;52.006;5.924;2022-12-18T00:19:23;102092.84;;;-2.93;67.45
73842;BME280;62184;52.006;5.924;2022-12-18T00:21:53;102098.72;;;-2.97;67.24
73842;BME280;62184;52.006;5.924;2022-12-18T00:24:19;102099.38;;;-3.01;67.49
73842;BME280;62184;52.006;5.924;2022-12-18T00:26:46;102094.84;;;-3.05;67.42
73842;BME280;62184;52.006;5.924;2022-12-18T00:29:13;102093.88;;;-3.07;67.39
73842;BME280;62184;52.006;5.924;2022-12-18T00:31:41;102091.16;;;-3.08;67.15
73842;BME280;62184;52.006;5.924;2022-12-18T00:34:09;102086.78;;;-3.09;67.35
73842;BME280;62184;52.006;5.924;2022-12-18T00:36:36;102082.03;;;-3.16;67.33
73842;BME280;62184;52.006;5.924;2022-12-18T00:39:05;102078.16;;;-3.24;67.73
73842;BME280;62184;52.006;5.924;2022-12-18T00:41:32;102072.63;;;-3.31;67.85
73842;BME280;62184;52.006;5.924;2022-12-18T00:43:58;102083.88;;;-3.32;67.83
73842;BME280;62184;52.006;5.924;2022-12-18T00:46:24;102080.38;;;-3.32;67.76
73842;BME280;62184;52.006;5.924;2022-12-18T00:48:51;102081.16;;;-3.35;67.67
73842;BME280;62184;52.006;5.924;2022-12-18T00:51:17;102076.66;;;-3.37;67.97
73842;BME280;62184;52.006;5.924;2022-12-18T00:53:44;102085.22;;;-3.40;67.92
73842;BME280;62184;52.006;5.924;2022-12-18T00:56:13;102082.47;;;-3.43;67.88
73842;BME280;62184;52.006;5.924;2022-12-18T00:58:39;102092.00;;;-3.43;67.77
73842;BME280;62184;52.006;5.924;2022-12-18T01:01:06;102095.53;;;-3.43;67.68
73842;BME280;62184;52.006;5.924;2022-12-18T01:03:35;102092.75;;;-3.46;67.67
73842;BME280;62184;52.006;5.924;2022-12-18T01:06:05;102086.53;;;-3.48;67.50
73842;BME280;62184;52.006;5.924;2022-12-18T01:08:32;102096.81;;;-3.51;67.71
73842;BME280;62184;52.006;5.924;2022-12-18T01:10:59;102095.84;;;-3.53;67.71
73842;BME280;62184;52.006;5.924;2022-12-18T01:13:28;102092.09;;;-3.58;67.73
73842;BME280;62184;52.006;5.924;2022-12-18T01:15:55;102078.09;;;-3.60;67.20
73842;BME280;62184;52.006;5.924;2022-12-18T01:18:21;102068.53;;;-3.59;67.38
73842;BME280;62184;52.006;5.924;2022-12-18T01:20:47;102064.19;;;-3.59;67.08
73842;BME280;62184;52.006;5.924;2022-12-18T01:23:14;102066.88;;;-3.57;66.87
73842;BME280;62184;52.006;5.924;2022-12-18T01:25:40;102058.97;;;-3.59;66.64
73842;BME280;62184;52.006;5.924;2022-12-18T01:28:07;102060.72;;;-3.59;66.50
73842;BME280;62184;52.006;5.924;2022-12-18T01:30:36;102065.69;;;-3.64;66.49
73842;BME280;62184;52.006;5.924;2022-12-18T01:33:04;102068.19;;;-3.65;66.52
73842;BME280;62184;52.006;5.924;2022-12-18T01:35:30;102070.72;;;-3.67;66.21
73842;BME280;62184;52.006;5.924;2022-12-18T01:37:57;102071.56;;;-3.68;65.95
73842;BME280;62184;52.006;5.924;2022-12-18T01:40:23;102074.22;;;-3.67;66.03
73842;BME280;62184;52.006;5.924;2022-12-18T01:42:51;102078.56;;;-3.67;65.62
73842;BME280;62184;52.006;5.924;2022-12-18T01:45:26;102087.06;;;-3.71;65.72
73842;BME280;62184;52.006;5.924;2022-12-18T01:47:59;102085.84;;;-3.78;65.86
73842;BME280;62184;52.006;5.924;2022-12-18T01:50:33;102090.81;;;-3.82;66.12
73842;BME280;62184;52.006;5.924;2022-12-18T01:53:05;102085.50;;;-3.84;66.31
73842;BME280;62184;52.006;5.924;2022-12-18T01:55:38;102078.53;;;-3.85;66.20
73842;BME280;62184;52.006;5.924;2022-12-18T01:58:09;102081.84;;;-3.87;66.33
73842;BME280;62184;52.006;5.924;2022-12-18T02:00:36;102073.94;;;-3.89;66.26
73842;BME280;62184;52.006;5.924;2022-12-18T02:03:05;102081.75;;;-3.89;66.40
73842;BME280;62184;52.006;5.924;2022-12-18T02:05:40;102081.84;;;-3.87;66.26
73842;BME280;62184;52.006;5.924;2022-12-18T02:08:16;102090.50;;;-3.88;66.03
73842;BME280;62184;52.006;5.924;2022-12-18T02:10:53;102090.31;;;-3.91;66.03
73842;BME280;62184;52.006;5.924;2022-12-18T02:13:34;102102.22;;;-3.96;66.12
73842;BME280;62184;52.006;5.924;2022-12-18T02:16:16;102100.25;;;-4.00;66.26
73842;BME280;62184;52.006;5.924;2022-12-18T02:18:53;102098.41;;;-4.03;66.46
73842;BME280;62184;52.006;5.924;2022-12-18T02:21:30;102100.09;;;-4.03;66.38
73842;BME280;62184;52.006;5.924;2022-12-18T02:24:18;102095.53;;;-4.08;66.36
73842;BME280;62184;52.006;5.924;2022-12-18T02:26:59;102082.47;;;-4.08;66.51
73842;BME280;62184;52.006;5.924;2022-12-18T02:29:35;102088.59;;;-4.07;66.68
73842;BME280;62184;52.006;5.924;2022-12-18T02:32:09;102085.19;;;-4.06;66.56
73842;BME280;62184;52.006;5.924;2022-12-18T02:34:41;102092.19;;;-4.05;66.46
73842;BME280;62184;52.006;5.924;2022-12-18T02:37:12;102091.47;;;-4.02;66.40
73842;BME280;62184;52.006;5.924;2022-12-18T02:39:46;102094.97;;;-4.02;66.15
73842;BME280;62184;52.006;5.924;2022-12-18T02:42:18;102091.47;;;-4.02;65.89
73842;BME280;62184;52.006;5.924;2022-12-18T02:44:47;102091.38;;;-4.04;65.95
73842;BME280;62184;52.006;5.924;2022-12-18T02:47:17;102088.59;;;-4.07;65.79
73842;BME280;62184;52.006;5.924;2022-12-18T02:49:55;102079.88;;;-4.08;65.63
73842;BME280;62184;52.006;5.924;2022-12-18T02:52:33;102080.69;;;-4.09;65.74
73842;BME280;62184;52.006;5.924;2022-12-18T02:55:19;102078.84;;;-4.11;65.86
73842;BME280;62184;52.006;5.924;2022-12-18T02:58:03;102079.56;;;-4.14;66.01
73842;BME280;62184;52.006;5.924;2022-12-18T03:00:40;102077.66;;;-4.16;65.98
73842;BME280;62184;52.006;5.924;2022-12-18T03:03:16;102081.03;;;-4.19;65.99
73842;BME280;62184;52.006;5.924;2022-12-18T03:05:52;102082.78;;;-4.18;65.77
73842;BME280;62184;52.006;5.924;2022-12-18T03:08:26;102076.63;;;-4.20;65.70
73842;BME280;62184;52.006;5.924;2022-12-18T03:10:59;102079.22;;;-4.20;65.91
73842;BME280;62184;52.006;5.924;2022-12-18T03:13:33;102072.22;;;-4.21;65.81
73842;BME280;62184;52.006;5.924;2022-12-18T03:16:06;102070.50;;;-4.20;65.91
73842;BME280;62184;52.006;5.924;2022-12-18T03:18:39;102064.38;;;-4.21;66.01
73842;BME280;62184;52.006;5.924;2022-12-18T03:21:12;102060.78;;;-4.23;66.09
73842;BME280;62184;52.006;5.924;2022-12-18T03:23:46;102067.81;;;-4.22;66.01
73842;BME280;62184;52.006;5.924;2022-12-18T03:26:19;102062.69;;;-4.20;65.69
73842;BME280;62184;52.006;5.924;2022-12-18T03:28:54;102062.69;;;-4.20;65.60
73842;BME280;62184;52.006;5.924;2022-12-18T03:31:27;102051.44;;;-4.19;65.57
73842;BME280;62184;52.006;5.924;2022-12-18T03:33:59;102048.03;;;-4.18;65.08
73842;BME280;62184;52.006;5.924;2022-12-18T03:36:29;102045.31;;;-4.20;65.01
73842;BME280;62184;52.006;5.924;2022-12-18T03:38:56;102045.22;;;-4.21;64.97
73842;BME280;62184;52.006;5.924;2022-12-18T03:41:27;102039.84;;;-4.24;64.85
73842;BME280;62184;52.006;5.924;2022-12-18T03:44:05;102045.72;;;-4.28;64.85
73842;BME280;62184;52.006;5.924;2022-12-18T03:46:46;102042.13;;;-4.30;65.02
73842;BME280;62184;52.006;5.924;2022-12-18T03:49:24;102038.44;;;-4.34;65.03
73842;BME280;62184;52.006;5.924;2022-12-18T03:52:02;102029.66;;;-4.36;65.47
73842;BME280;62184;52.006;5.924;2022-12-18T03:54:33;102039.28;;;-4.35;65.56
73842;BME280;62184;52.006;5.924;2022-12-18T03:57:11;102037.50;;;-4.36;65.73
73842;BME280;62184;52.006;5.924;2022-12-18T03:59:47;102037.53;;;-4.34;65.65
73842;BME280;62184;52.006;5.924;2022-12-18T04:02:18;102028.00;;;-4.34;65.92
73842;BME280;62184;52.006;5.924;2022-12-18T04:04:50;102028.91;;;-4.33;65.57
73842;BME280;62184;52.006;5.924;2022-12-18T04:07:20;102028.19;;;-4.31;65.89
73842;BME280;62184;52.006;5.924;2022-12-18T04:09:48;102030.06;;;-4.28;65.61
73842;BME280;62184;52.006;5.924;2022-12-18T04:12:17;102035.38;;;-4.27;65.21
73842;BME280;62184;52.006;5.924;2022-12-18T04:14:46;102031.94;;;-4.26;65.25
73842;BME280;62184;52.006;5.924;2022-12-18T04:17:13;102030.16;;;-4.27;65.23
73842;BME280;62184;52.006;5.924;2022-12-18T04:19:39;102031.88;;;-4.27;65.10
73842;BME280;62184;52.006;5.924;2022-12-18T04:22:06;102024.78;;;-4.30;65.09
73842;BME280;62184;52.006;5.924;2022-12-18T04:24:32;102018.66;;;-4.30;65.33
73842;BME280;62184;52.006;5.924;2022-12-18T04:26:59;102025.59;;;-4.31;65.68
73842;BME280;62184;52.006;5.924;2022-12-18T04:29:25;102024.78;;;-4.30;65.54
73842;BME280;62184;52.006;5.924;2022-12-18T04:31:54;102016.94;;;-4.30;65.61
73842;BME280;62184;52.006;5.924;2022-12-18T04:34:21;102016.94;;;-4.30;65.59
73842;BME280;62184;52.006;5.924;2022-12-18T04:36:48;102016.84;;;-4.31;66.10
73842;BME280;62184;52.006;5.924;2022-12-18T04:39:14;102014.34;;;-4.30;65.88
73842;BME280;62184;52.006;5.924;2022-12-18T04:41:41;102012.63;;;-4.29;65.94
73842;BME280;62184;52.006;5.924;2022-12-18T04:44:07;102010.91;;;-4.29;65.99
73842;BME280;62184;52.006;5.924;2022-12-18T04:46:34;102007.41;;;-4.29;65.91
73842;BME280;62184;52.006;5.924;2022-12-18T04:49:03;102013.63;;;-4.27;65.92
73842;BME280;62184;52.006;5.924;2022-12-18T04:51:29;102018.84;;;-4.27;65.66
73842;BME280;62184;52.006;5.924;2022-12-18T04:53:56;102026.72;;;-4.26;65.83
73842;BME280;62184;52.006;5.924;2022-12-18T04:56:22;102018.84;;;-4.27;65.66
73842;BME280;62184;52.006;5.924;2022-12-18T04:58:49;102022.25;;;-4.28;65.70
73842;BME280;62184;52.006;5.924;2022-12-18T05:01:18;102011.72;;;-4.30;65.77
73842;BME280;62184;52.006;5.924;2022-12-18T05:03:45;102014.16;;;-4.33;66.19
73842;BME280;62184;52.006;5.924;2022-12-18T05:06:14;102010.66;;;-4.33;66.20
73842;BME280;62184;52.006;5.924;2022-12-18T05:08:40;102019.38;;;-4.33;66.54
73842;BME280;62184;52.006;5.924;2022-12-18T05:11:08;102018.56;;;-4.32;66.30
73842;BME280;62184;52.006;5.924;2022-12-18T05:13:36;102021.19;;;-4.32;66.68
73842;BME280;62184;52.006;5.924;2022-12-18T05:16:05;102033.41;;;-4.31;66.70
73842;BME280;62184;52.006;5.924;2022-12-18T05:18:32;102043.84;;;-4.31;66.85
73842;BME280;62184;52.006;5.924;2022-12-18T05:21:00;102043.84;;;-4.31;67.41
73842;BME280;62184;52.006;5.924;2022-12-18T05:23:29;102050.03;;;-4.29;67.29
73842;BME280;62184;52.006;5.924;2022-12-18T05:25:57;102059.66;;;-4.28;67.59
73842;BME280;62184;52.006;5.924;2022-12-18T05:28:27;102064.06;;;-4.27;67.65
73842;BME280;62184;52.006;5.924;2022-12-18T05:30:56;102065.84;;;-4.26;67.50
73842;BME280;62184;52.006;5.924;2022-12-18T05:33:28;102064.94;;;-4.26;67.65
73842;BME280;62184;52.006;5.924;2022-12-18T05:35:57;102067.63;;;-4.25;67.71
73842;BME280;62184;52.006;5.924;2022-12-18T05:38:35;102080.75;;;-4.23;67.81
73842;BME280;62184;52.006;5.924;2022-12-18T05:41:04;102086.78;;;-4.24;67.69
73842;BME280;62184;52.006;5.924;2022-12-18T05:43:33;102092.00;;;-4.24;67.88
73842;BME280;62184;52.006;5.924;2022-12-18T05:46:03;102082.38;;;-4.25;67.83
73842;BME280;62184;52.006;5.924;2022-12-18T05:48:31;102078.06;;;-4.25;68.02
73842;BME280;62184;52.006;5.924;2022-12-18T05:51:04;102073.91;;;-4.21;68.00
73842;BME280;62184;52.006;5.924;2022-12-18T05:53:35;102072.31;;;-4.19;68.03
73842;BME280;62184;52.006;5.924;2022-12-18T05:56:05;102070.59;;;-4.19;67.88
73842;BME280;62184;52.006;5.924;2022-12-18T05:58:34;102055.84;;;-4.18;67.88
73842;BME280;62184;52.006;5.924;2022-12-18T06:01:07;102044.56;;;-4.17;67.57
73842;BME280;62184;52.006;5.924;2022-12-18T06:03:34;102049.06;;;-4.15;67.70
73842;BME280;62184;52.006;5.924;2022-12-18T06:06:01;102044.75;;;-4.14;67.31
73842;BME280;62184;52.006;5.924;2022-12-18T06:08:28;102030.88;;;-4.13;67.11
73842;BME280;62184;52.006;5.924;2022-12-18T06:10:57;102024.94;;;-4.11;67.03
73842;BME280;62184;52.006;5.924;2022-12-18T06:13:23;102029.31;;;-4.10;66.86
73842;BME280;62184;52.006;5.924;2022-12-18T06:15:50;102024.09;;;-4.10;66.89
73842;BME280;62184;52.006;5.924;2022-12-18T06:18:16;102018.84;;;-4.11;66.91
73842;BME280;62184;52.006;5.924;2022-12-18T06:20:42;102024.09;;;-4.10;66.95
73842;BME280;62184;52.006;5.924;2022-12-18T06:23:09;102032.81;;;-4.09;67.09
73842;BME280;62184;52.006;5.924;2022-12-18T06:25:39;102033.72;;;-4.09;67.13
73842;BME280;62184;52.006;5.924;2022-12-18T06:28:08;102024.19;;;-4.08;67.14
73842;BME280;62184;52.006;5.924;2022-12-18T06:30:34;102024.19;;;-4.08;66.97
73842;BME280;62184;52.006;5.924;2022-12-18T06:33:01;102022.47;;;-4.08;67.13
73842;BME280;62184;52.006;5.924;2022-12-18T06:35:27;102013.84;;;-4.07;66.98
73842;BME280;62184;52.006;5.924;2022-12-18T06:37:54;102006.03;;;-4.07;67.09
73842;BME280;62184;52.006;5.924;2022-12-18T06:40:20;102010.44;;;-4.06;67.06
73842;BME280;62184;52.006;5.924;2022-12-18T06:42:47;102011.25;;;-4.07;66.75
73842;BME280;62184;52.006;5.924;2022-12-18T06:45:16;102010.25;;;-4.09;66.91
73842;BME280;62184;52.006;5.924;2022-12-18T06:47:42;101999.81;;;-4.09;66.75
73842;BME280;62184;52.006;5.924;2022-12-18T06:50:09;101997.16;;;-4.10;66.66
73842;BME280;62184;52.006;5.924;2022-12-18T06:52:36;101992.75;;;-4.11;66.80
73842;BME280;62184;52.006;5.924;2022-12-18T06:55:04;102000.63;;;-4.10;67.22
73842;BME280;62184;52.006;5.924;2022-12-18T06:57:31;101995.50;;;-4.08;67.31
73842;BME280;62184;52.006;5.924;2022-12-18T06:59:57;101987.75;;;-4.07;67.09
73842;BME280;62184;52.006;5.924;2022-12-18T07:02:26;101980.09;;;-4.03;67.10
73842;BME280;62184;52.006;5.924;2022-12-18T07:04:53;101974.06;;;-4.02;66.93
73842;BME280;62184;52.006;5.924;2022-12-18T07:07:19;101974.97;;;-4.02;67.09
73842;BME280;62184;52.006;5.924;2022-12-18T07:09:46;101973.25;;;-4.01;66.99
73842;BME280;62184;52.006;5.924;2022-12-18T07:12:12;101983.69;;;-4.01;66.74
73842;BME280;62184;52.006;5.924;2022-12-18T07:14:39;101980.25;;;-4.00;66.80
73842;BME280;62184;52.006;5.924;2022-12-18T07:17:05;101977.81;;;-3.97;66.89
73842;BME280;62184;52.006;5.924;2022-12-18T07:19:34;101983.09;;;-3.96;67.22
73842;BME280;62184;52.006;5.924;2022-12-18T07:22:01;101986.69;;;-3.94;67.49
73842;BME280;62184;52.006;5.924;2022-12-18T07:24:28;101977.31;;;-3.90;67.59
73842;BME280;62184;52.006;5.924;2022-12-18T07:26:54;101988.81;;;-3.87;67.49
73842;BME280;62184;52.006;5.924;2022-12-18T07:29:20;101975.84;;;-3.85;67.67
73842;BME280;62184;52.006;5.924;2022-12-18T07:31:47;101982.09;;;-3.82;68.05
73842;BME280;62184;52.006;5.924;2022-12-18T07:34:14;101978.75;;;-3.79;68.34
73842;BME280;62184;52.006;5.924;2022-12-18T07:36:43;101980.63;;;-3.77;68.64
73842;BME280;62184;52.006;5.924;2022-12-18T07:39:10;101977.34;;;-3.73;68.36
73842;BME280;62184;52.006;5.924;2022-12-18T07:41:37;101977.50;;;-3.70;68.44
73842;BME280;62184;52.006;5.924;2022-12-18T07:44:04;101969.09;;;-3.64;68.37
73842;BME280;62184;52.006;5.924;2022-12-18T07:46:30;101966.63;;;-3.61;68.03
73842;BME280;62184;52.006;5.924;2022-12-18T07:48:57;101950.16;;;-3.60;68.06
73842;BME280;62184;52.006;5.924;2022-12-18T07:51:23;101951.09;;;-3.58;68.02
73842;BME280;62184;52.006;5.924;2022-12-18T07:53:52;101949.56;;;-3.54;68.01
73842;BME280;62184;52.006;5.924;2022-12-18T07:56:20;101942.75;;;-3.51;68.20
73842;BME280;62184;52.006;5.924;2022-12-18T07:58:46;101937.63;;;-3.49;68.38
73842;BME280;62184;52.006;5.924;2022-12-18T08:01:13;101940.47;;;-3.45;68.66
73842;BME280;62184;52.006;5.924;2022-12-18T08:03:40;101943.22;;;-3.42;68.96
73842;BME280;62184;52.006;5.924;2022-12-18T08:06:08;101935.53;;;-3.39;69.02
73842;BME280;62184;52.006;5.924;2022-12-18T08:08:36;101935.75;;;-3.34;68.73
73842;BME280;62184;52.006;5.924;2022-12-18T08:11:05;101945.63;;;-3.28;69.03
73842;BME280;62184;52.006;5.924;2022-12-18T08:13:31;101933.66;;;-3.23;68.94
73842;BME280;62184;52.006;5.924;2022-12-18T08:15:58;101914.72;;;-3.19;68.78
73842;BME280;62184;52.006;5.924;2022-12-18T08:18:28;101927.25;;;-3.12;68.76
73842;BME280;62184;52.006;5.924;2022-12-18T08:20:55;101912.59;;;-3.09;68.69
73842;BME280;62184;52.006;5.924;2022-12-18T08:23:21;101918.94;;;-3.04;68.86
73842;BME280;62184;52.006;5.924;2022-12-18T08:25:48;101923.63;;;-2.97;68.81
73842;BME280;62184;52.006;5.924;2022-12-18T08:28:19;101925.63;;;-2.91;68.98
73842;BME280;62184;52.006;5.924;2022-12-18T08:30:45;101921.53;;;-2.86;68.71
73842;BME280;62184;52.006;5.924;2022-12-18T08:33:11;101913.81;;;-2.83;68.90
73842;BME280;62184;52.006;5.924;2022-12-18T08:35:38;101906.19;;;-2.78;69.04
73842;BME280;62184;52.006;5.924;2022-12-18T08:38:04;101906.41;;;-2.74;68.89
73842;BME280;62184;52.006;5.924;2022-12-18T08:40:31;101904.81;;;-2.70;69.27
73842;BME280;62184;52.006;5.924;2022-12-18T08:42:57;101901.59;;;-2.65;68.74
73842;BME280;62184;52.006;5.924;2022-12-18T08:45:27;101923.66;;;-2.58;68.85
73842;BME280;62184;52.006;5.924;2022-12-18T08:47:54;101917.78;;;-2.54;68.54
73842;BME280;62184;52.006;5.924;2022-12-18T08:50:20;101919.63;;;-2.51;68.68
73842;BME280;62184;52.006;5.924;2022-12-18T08:52:47;101916.31;;;-2.47;68.83
73842;BME280;62184;52.006;5.924;2022-12-18T08:55:13;101924.31;;;-2.44;68.54
73842;BME280;62184;52.006;5.924;2022-12-18T08:57:40;101922.66;;;-2.42;68.50
73842;BME280;62184;52.006;5.924;2022-12-18T09:00:08;101917.47;;;-2.41;68.61
73842;BME280;62184;52.006;5.924;2022-12-18T09:02:38;101915.09;;;-2.36;68.76
73842;BME280;62184;52.006;5.924;2022-12-18T09:05:05;101920.44;;;-2.33;68.64
73842;BME280;62184;52.006;5.924;2022-12-18T09:07:32;101908.31;;;-2.31;68.75
73842;BME280;62184;52.006;5.924;2022-12-18T09:09:58;101915.63;;;-2.24;68.95
73842;BME280;62184;52.006;5.924;2022-12-18T09:12:25;101918.53;;;-2.18;69.10
73842;BME280;62184;52.006;5.924;2022-12-18T09:14:51;101916.25;;;-2.10;69.23
73842;BME280;62184;52.006;5.924;2022-12-18T09:17:18;101913.06;;;-2.03;69.25
73842;BME280;62184;52.006;5.924;2022-12-18T09:19:47;101915.16;;;-1.95;69.43
73842;BME280;62184;52.006;5.924;2022-12-18T09:22:13;101915.56;;;-1.86;69.32
73842;BME280;62184;52.006;5.924;2022-12-18T09:24:40;101914.16;;;-1.78;69.44
73842;BME280;62184;52.006;5.924;2022-12-18T09:27:06;101903.94;;;-1.71;69.54
73842;BME280;62184;52.006;5.924;2022-12-18T09:29:33;101899.91;;;-1.63;69.58
73842;BME280;62184;52.006;5.924;2022-12-18T09:31:59;101909.94;;;-1.53;69.73
73842;BME280;62184;52.006;5.924;2022-12-18T09:34:26;101912.13;;;-1.43;69.73
73842;BME280;62184;52.006;5.924;2022-12-18T09:36:55;101905.47;;;-1.35;69.64
73842;BME280;62184;52.006;5.924;2022-12-18T09:39:21;101901.41;;;-1.27;69.92
73842;BME280;62184;52.006;5.924;2022-12-18T09:41:51;101905.41;;;-1.14;69.65
73842;BME280;62184;52.006;5.924;2022-12-18T09:44:25;101905.75;;;-1.05;69.66
73842;BME280;62184;52.006;5.924;2022-12-18T09:47:02;101907.84;;;-0.96;69.63
73842;BME280;62184;52.006;5.924;2022-12-18T09:49:35;101902.91;;;-0.89;69.82
73842;BME280;62184;52.006;5.924;2022-12-18T09:52:14;101891.88;;;-0.80;69.70
73842;BME280;62184;52.006;5.924;2022-12-18T09:54:49;101885.09;;;-0.75;69.54
73842;BME280;62184;52.006;5.924;2022-12-18T09:57:21;101886.97;;;-0.71;69.69
73842;BME280;62184;52.006;5.924;2022-12-18T09:59:53;101884.53;;;-0.67;69.38
73842;BME280;62184;52.006;5.924;2022-12-18T10:02:24;101878.50;;;-0.64;69.30
73842;BME280;62184;52.006;5.924;2022-12-18T10:05:02;101878.56;;;-0.63;69.60
73842;BME280;62184;52.006;5.924;2022-12-18T10:07:41;101875.94;;;-0.63;69.49
73842;BME280;62184;52.006;5.924;2022-12-18T10:10:25;101870.84;;;-0.58;69.40
73842;BME280;62184;52.006;5.924;2022-12-18T10:13:03;101860.47;;;-0.55;69.46
73842;BME280;62184;52.006;5.924;2022-12-18T10:15:45;101873.72;;;-0.52;69.43
73842;BME280;62184;52.006;5.924;2022-12-18T10:18:28;101868.69;;;-0.46;69.32
73842;BME280;62184;52.006;5.924;2022-12-18T10:21:11;101855.56;;;-0.46;69.26
73842;BME280;62184;52.006;5.924;2022-12-18T10:23:52;101854.94;;;-0.39;69.26
73842;BME280;62184;52.006;5.924;2022-12-18T10:26:26;101849.06;;;-0.32;69.27
73842;BME280;62184;52.006;5.924;2022-12-18T10:28:53;101844.94;;;-0.25;69.16
73842;BME280;62184;52.006;5.924;2022-12-18T10:31:23;101845.16;;;-0.19;69.25
73842;BME280;62184;52.006;5.924;2022-12-18T10:33:51;101841.06;;;-0.11;69.14
73842;BME280;62184;52.006;5.924;2022-12-18T10:36:19;101836.91;;;-0.04;68.92
73842;BME280;62184;52.006;5.924;2022-12-18T10:38:49;101829.31;;;0.05;69.08
73842;BME280;62184;52.006;5.924;2022-12-18T10:41:26;101828.81;;;0.15;68.85
73842;BME280;62184;52.006;5.924;2022-12-18T10:44:12;101824.56;;;0.20;68.54
73842;BME280;62184;52.006;5.924;2022-12-18T10:46:44;101817.53;;;0.19;68.59
73842;BME280;62184;52.006;5.924;2022-12-18T10:49:21;101815.03;;;0.22;68.41
73842;BME280;62184;52.006;5.924;2022-12-18T10:51:49;101815.13;;;0.25;68.51
73842;BME280;62184;52.006;5.924;2022-12-18T10:54:32;101810.91;;;0.30;68.33
73842;BME280;62184;52.006;5.924;2022-12-18T10:57:14;101798.84;;;0.37;68.28
73842;BME280;62184;52.006;5.924;2022-12-18T10:59:50;101799.03;;;0.43;68.06
73842;BME280;62184;52.006;5.924;2022-12-18T11:02:27;101795.63;;;0.45;68.07
73842;BME280;62184;52.006;5.924;2022-12-18T11:05:00;101804.63;;;0.53;67.83
73842;BME280;62184;52.006;5.924;2022-12-18T11:07:47;101803.00;;;0.57;67.56
73842;BME280;62184;52.006;5.924;2022-12-18T11:10:18;101805.63;;;0.57;67.36
73842;BME280;62184;52.006;5.924;2022-12-18T11:12:47;101802.19;;;0.60;67.23
73842;BME280;62184;52.006;5.924;2022-12-18T11:15:16;101777.78;;;0.64;67.17
73842;BME280;62184;52.006;5.924;2022-12-18T11:17:47;101782.25;;;0.66;66.81
73842;BME280;62184;52.006;5.924;2022-12-18T11:20:23;101785.78;;;0.67;66.62
73842;BME280;62184;52.006;5.924;2022-12-18T11:22:58;101791.22;;;0.73;66.48
73842;BME280;62184;52.006;5.924;2022-12-18T11:25:30;101787.09;;;0.81;66.71
73842;BME280;62184;52.006;5.924;2022-12-18T11:27:59;101774.91;;;0.84;66.23
73842;BME280;62184;52.006;5.924;2022-12-18T11:30:29;101772.38;;;0.87;66.46
73842;BME280;62184;52.006;5.924;2022-12-18T11:33:01;101754.97;;;0.91;66.23
73842;BME280;62184;52.006;5.924;2022-12-18T11:35:42;101751.50;;;0.94;66.02
73842;BME280;62184;52.006;5.924;2022-12-18T11:38:19;101747.22;;;0.97;65.69
73842;BME280;62184;52.006;5.924;2022-12-18T11:40:56;101750.81;;;0.99;65.76
73842;BME280;62184;52.006;5.924;2022-12-18T11:43:29;101745.63;;;1.02;65.27
73842;BME280;62184;52.006;5.924;2022-12-18T11:46:05;101756.25;;;1.05;65.24
73842;BME280;62184;52.006;5.924;2022-12-18T11:48:40;101756.44;;;1.13;65.03
73842;BME280;62184;52.006;5.924;2022-12-18T11:51:18;101753.09;;;1.18;64.76
73842;BME280;62184;52.006;5.924;2022-12-18T11:53:58;101743.59;;;1.23;64.82
73842;BME280;62184;52.006;5.924;2022-12-18T11:56:32;101740.13;;;1.26;64.59
73842;BME280;62184;52.006;5.924;2022-12-18T11:59:09;101741.97;;;1.28;64.41
73842;BME280;62184;52.006;5.924;2022-12-18T12:01:51;101734.22;;;1.35;64.09
73842;BME280;62184;52.006;5.924;2022-12-18T12:04:46;101730.91;;;1.40;63.64
73842;BME280;62184;52.006;5.924;2022-12-18T12:07:29;101721.25;;;1.41;63.53
73842;BME280;62184;52.006;5.924;2022-12-18T12:10:12;101710.88;;;1.47;63.28
73842;BME280;62184;52.006;5.924;2022-12-18T12:13:06;101707.41;;;1.48;62.76
73842;BME280;62184;52.006;5.924;2022-12-18T12:15:54;101702.13;;;1.48;62.78
73842;BME280;62184;52.006;5.924;2022-12-18T12:18:41;101695.19;;;1.51;62.77
73842;BME280;62184;52.006;5.924;2022-12-18T12:21:21;101697.13;;;1.57;62.55
73842;BME280;62184;52.006;5.924;2022-12-18T12:24:00;101684.84;;;1.57;62.17
73842;BME280;62184;52.006;5.924;2022-12-18T12:26:42;101692.69;;;1.56;61.63
73842;BME280;62184;52.006;5.924;2022-12-18T12:29:33;101695.38;;;1.57;61.59
73842;BME280;62184;52.006;5.924;2022-12-18T12:32:22;101694.53;;;1.60;61.17
73842;BME280;62184;52.006;5.924;2022-12-18T12:35:08;101693.69;;;1.61;60.98
73842;BME280;62184;52.006;5.924;2022-12-18T12:37:53;101685.97;;;1.67;60.74
73842;BME280;62184;52.006;5.924;2022-12-18T12:40:35;101682.44;;;1.68;60.56
73842;BME280;62184;52.006;5.924;2022-12-18T12:43:19;101677.13;;;1.65;60.22
73842;BME280;62184;52.006;5.924;2022-12-18T12:45:58;101665.75;;;1.66;60.17
73842;BME280;62184;52.006;5.924;2022-12-18T12:48:40;101667.44;;;1.64;59.98
73842;BME280;62184;52.006;5.924;2022-12-18T12:51:14;101670.94;;;1.63;59.49
73842;BME280;62184;52.006;5.924;2022-12-18T12:53:44;101654.28;;;1.64;59.64
73842;BME280;62184;52.006;5.924;2022-12-18T12:56:14;101656.97;;;1.65;59.58
73842;BME280;62184;52.006;5.924;2022-12-18T12:58:49;101651.78;;;1.70;59.76
73842;BME280;62184;52.006;5.924;2022-12-18T13:01:32;101642.19;;;1.72;59.31
73842;BME280;62184;52.006;5.924;2022-12-18T13:04:21;101636.00;;;1.70;59.26
73842;BME280;62184;52.006;5.924;2022-12-18T13:07:01;101639.47;;;1.67;59.34
73842;BME280;62184;52.006;5.924;2022-12-18T13:10:11;101632.44;;;1.68;58.91
73842;BME280;62184;52.006;5.924;2022-12-18T13:12:55;101633.25;;;1.65;58.73
73842;BME280;62184;52.006;5.924;2022-12-18T13:15:25;101623.59;;;1.64;59.16